createdAt,value
2023-02-27T06:39:50.830Z,0.76
2023-02-27T06:40:50.820Z,0.81
2023-02-27T06:41:50.856Z,0.86
2023-02-27T06:42:50.801Z,0.92
2023-02-27T06:43:50.797Z,0.98
2023-02-27T06:44:50.791Z,1.07
2023-02-27T06:45:50.792Z,1.13
2023-02-27T06:46:50.740Z,1.25
2023-02-27T06:47:50.734Z,1.36
2023-02-27T06:48:50.744Z,1.52
2023-02-27T06:49:50.706Z,1.57
2023-02-27T06:50:50.686Z,1.62
2023-02-27T06:51:50.670Z,1.62
2023-02-27T06:52:50.655Z,1.69
2023-02-27T06:53:50.617Z,1.85
2023-02-27T06:54:50.604Z,2.03
2023-02-27T06:55:50.586Z,2.14
2023-02-27T06:56:50.582Z,2.27
2023-02-27T06:57:50.562Z,2.41
2023-02-27T06:58:50.542Z,2.50
2023-02-27T06:59:50.511Z,2.68
2023-02-27T07:00:50.492Z,2.86
2023-02-27T07:01:50.474Z,3.10
2023-02-27T07:02:50.451Z,3.27
2023-02-27T07:03:50.456Z,3.42
2023-02-27T07:04:50.449Z,3.62
2023-02-27T07:05:50.394Z,3.73
2023-02-27T07:07:34.985Z,3.91
2023-02-27T07:07:51.351Z,3.92
2023-02-27T07:09:00.902Z,3.93
2023-02-27T07:09:51.312Z,3.94
2023-02-27T07:10:50.424Z,3.95
2023-02-27T07:11:50.269Z,4.08
2023-02-27T07:12:50.273Z,4.35
2023-02-27T07:13:50.227Z,4.77
2023-02-27T07:14:50.211Z,5.48
2023-02-27T07:15:50.186Z,5.92
2023-02-27T07:16:50.162Z,5.93
2023-02-27T07:17:50.138Z,5.94
2023-02-27T07:18:50.110Z,6.10
2023-02-27T07:19:50.095Z,6.26
2023-02-27T07:20:50.064Z,6.40
2023-02-27T07:21:50.040Z,6.54
2023-02-27T07:22:50.031Z,6.68
2023-02-27T07:23:49.970Z,6.79
2023-02-27T07:24:49.936Z,7.11
2023-02-27T07:25:49.905Z,8.05
2023-02-27T07:26:49.884Z,8.36
2023-02-27T07:27:49.885Z,8.62
2023-02-27T07:28:49.844Z,8.49
2023-02-27T07:29:49.815Z,8.28
2023-02-27T07:30:49.799Z,8.30
2023-02-27T07:31:49.759Z,8.28
2023-02-27T07:32:49.788Z,8.25
2023-02-27T07:34:49.683Z,7.63
2023-02-27T07:35:49.741Z,7.06
2023-02-27T07:36:49.618Z,6.89
2023-02-27T07:37:49.586Z,6.62
2023-02-27T07:38:49.586Z,6.04
2023-02-27T07:39:49.516Z,5.97
2023-02-27T07:40:49.496Z,5.68
2023-02-27T07:41:49.463Z,5.36
2023-02-27T07:42:50.691Z,4.86
2023-02-27T07:43:49.638Z,4.91
2023-02-27T07:44:49.616Z,4.64
2023-02-27T07:45:49.576Z,4.39
2023-02-27T07:46:49.618Z,4.05
2023-02-27T07:47:49.517Z,4.09
2023-02-27T07:48:49.477Z,3.70
2023-02-27T07:49:49.491Z,3.24
2023-02-27T07:50:49.410Z,3.47
2023-02-27T07:51:49.370Z,3.37
2023-02-27T07:52:49.337Z,3.79
2023-02-27T07:53:49.313Z,4.07
2023-02-27T07:54:49.289Z,3.36
2023-02-27T07:55:49.318Z,3.25
2023-02-27T07:56:49.240Z,3.45
2023-02-27T07:57:49.214Z,3.51
2023-02-27T07:58:49.251Z,4.09
2023-02-27T07:59:49.079Z,3.84
2023-02-27T08:00:49.084Z,3.40
2023-02-27T08:01:49.011Z,3.53
2023-02-27T08:02:49.168Z,3.64
2023-02-27T08:03:48.936Z,3.82
2023-02-27T08:04:48.926Z,4.64
2023-02-27T08:05:48.846Z,4.40
2023-02-27T08:06:48.827Z,3.79
2023-02-27T08:07:48.793Z,4.04
2023-02-27T08:08:48.729Z,4.01
2023-02-27T08:09:48.685Z,4.03
2023-02-27T08:10:48.656Z,4.17
2023-02-27T08:11:49.320Z,4.23
2023-02-27T08:12:48.577Z,4.24
2023-02-27T08:13:59.952Z,4.50
2023-02-27T08:15:48.474Z,4.18
2023-02-27T08:16:48.426Z,4.53
2023-02-27T08:17:48.380Z,4.77
2023-02-27T08:18:48.346Z,5.02
2023-02-27T08:19:48.313Z,5.04
2023-02-27T08:20:48.258Z,5.41
2023-02-27T08:21:48.229Z,5.91
2023-02-27T08:22:48.192Z,5.86
2023-02-27T08:23:48.139Z,5.45
2023-02-27T08:24:48.114Z,4.90
2023-02-27T08:25:48.063Z,4.92
2023-02-27T08:26:48.053Z,5.06
2023-02-27T08:27:47.994Z,5.78
2023-02-27T08:28:47.961Z,5.56
2023-02-27T08:29:47.926Z,5.16
2023-02-27T08:31:47.957Z,4.63
2023-02-27T08:32:47.817Z,4.80
2023-02-27T08:33:49.598Z,5.66
2023-02-27T08:35:47.724Z,5.10
2023-02-27T08:36:47.686Z,4.69
2023-02-27T08:37:47.610Z,4.69
2023-02-27T08:38:47.565Z,3.91
2023-02-27T08:39:47.528Z,3.48
2023-02-27T08:40:47.494Z,2.76
2023-02-27T08:41:47.443Z,1.33
2023-02-27T08:42:47.563Z,0.58
2023-02-27T08:43:47.405Z,0.36
2023-02-27T08:44:47.387Z,0.34
2023-02-27T08:45:47.536Z,0.34
2023-02-27T08:46:47.477Z,0.34
2023-02-27T08:47:47.502Z,0.34
2023-02-27T08:48:47.451Z,0.34
2023-02-27T08:49:47.578Z,0.34
2023-02-27T08:50:47.444Z,0.34
2023-02-27T08:51:47.565Z,0.34
2023-02-27T08:52:47.636Z,0.34
2023-02-27T08:53:47.614Z,0.34
2023-02-27T09:46:48.527Z,42.73
2023-02-27T09:47:48.516Z,42.54
2023-02-27T09:48:48.481Z,42.08
2023-02-27T09:49:48.512Z,43.15
2023-02-27T09:50:48.467Z,42.87
2023-02-27T09:51:48.427Z,42.94
2023-02-27T09:52:48.449Z,43.29
2023-02-27T09:53:48.415Z,44.25
2023-02-27T09:54:48.366Z,45.97
2023-02-27T09:55:48.355Z,50.09
2023-02-27T09:56:48.320Z,50.97
2023-02-27T09:57:48.305Z,51.73
2023-02-27T09:58:48.289Z,54.72
2023-02-27T09:59:48.273Z,55.42
2023-02-27T10:00:48.275Z,55.95
2023-02-27T10:01:48.237Z,56.32
2023-02-27T10:02:48.196Z,55.64
2023-02-27T10:03:48.182Z,55.11
2023-02-27T10:04:48.162Z,55.00
2023-02-27T10:05:48.262Z,53.63
2023-02-27T10:06:48.133Z,54.68
2023-02-27T10:07:48.111Z,53.86
2023-02-27T10:08:48.078Z,53.31
2023-02-27T10:09:48.069Z,54.28
2023-02-27T10:10:48.042Z,54.32
2023-02-27T10:11:48.022Z,54.27
2023-02-27T10:12:47.991Z,53.15
2023-02-27T10:13:47.998Z,54.39
2023-02-27T10:14:47.966Z,55.19
2023-02-27T10:15:47.939Z,53.00
2023-02-27T10:16:47.951Z,52.34
2023-02-27T10:17:47.916Z,52.71
2023-02-27T10:18:47.881Z,54.78
2023-02-27T10:19:47.836Z,55.60
2023-02-27T10:20:47.816Z,57.12
2023-02-27T10:21:47.807Z,57.20
2023-02-27T10:22:47.754Z,57.19
2023-02-27T10:23:47.741Z,57.92
2023-02-27T10:24:47.711Z,56.06
2023-02-27T10:25:47.688Z,56.88
2023-02-27T10:26:47.670Z,59.35
2023-02-27T10:27:47.639Z,58.59
2023-02-27T10:28:47.636Z,58.37
2023-02-27T10:29:47.596Z,58.63
2023-02-27T10:30:47.623Z,58.89
2023-02-27T10:31:47.582Z,58.11
2023-02-27T10:32:47.515Z,59.33
2023-02-27T10:33:47.501Z,58.69
2023-02-27T10:34:47.478Z,57.31
2023-02-27T10:35:47.469Z,57.04
2023-02-27T10:36:47.440Z,57.38
2023-02-27T10:37:47.386Z,57.72
2023-02-27T10:38:47.357Z,57.75
2023-02-27T10:39:47.322Z,57.34
2023-02-27T10:40:47.290Z,55.58
2023-02-27T10:41:47.274Z,54.92
2023-02-27T10:42:47.237Z,55.81
2023-02-27T10:43:47.250Z,54.39
2023-02-27T10:44:47.179Z,55.19
2023-02-27T10:45:47.156Z,52.45
2023-02-27T10:46:47.124Z,52.47
2023-02-27T10:47:47.069Z,49.84
2023-02-27T10:48:47.037Z,49.69
2023-02-27T10:49:47.042Z,51.31
2023-02-27T10:50:46.977Z,52.21
2023-02-27T10:51:46.964Z,55.28
2023-02-27T10:52:46.910Z,60.11
2023-02-27T10:53:46.861Z,65.26
2023-02-27T10:54:46.809Z,70.48
2023-02-27T10:55:46.778Z,75.88
2023-02-27T10:56:46.748Z,80.36
2023-02-27T10:57:46.698Z,83.09
2023-02-27T10:58:46.647Z,88.01
2023-02-27T10:59:46.605Z,98.51
2023-02-27T11:00:46.598Z,103.30
2023-02-27T11:01:46.560Z,84.72
2023-02-27T11:02:46.547Z,60.38
2023-02-27T11:03:46.465Z,62.06
2023-02-27T11:04:46.486Z,70.56
2023-02-27T11:05:46.405Z,67.96
2023-02-27T11:06:46.466Z,59.29
2023-02-27T11:07:46.336Z,63.05
2023-02-27T11:08:46.405Z,64.99
2023-02-27T11:09:46.262Z,64.19
2023-02-27T11:10:46.240Z,66.82
2023-02-27T11:11:46.235Z,62.55
2023-02-27T11:12:46.222Z,66.55
2023-02-27T11:13:46.103Z,73.08
2023-02-27T11:14:46.051Z,76.46
2023-02-27T11:15:46.021Z,80.92
2023-02-27T11:16:45.948Z,87.95
2023-02-27T11:17:45.904Z,83.08
2023-02-27T11:18:45.871Z,89.00
2023-02-27T11:19:45.825Z,89.94
2023-02-27T11:20:45.845Z,92.48
2023-02-27T11:21:45.758Z,94.43
2023-02-27T11:57:45.919Z,67.94
2023-02-27T13:20:40.619Z,30.10
2023-02-27T13:21:40.570Z,30.68
2023-02-27T13:22:40.556Z,30.50
2023-02-27T13:23:40.507Z,31.68
2023-02-27T13:24:40.461Z,31.74
2023-02-27T13:25:40.444Z,31.84
2023-02-27T13:26:40.388Z,32.12
2023-02-27T13:27:40.351Z,32.41
2023-02-27T13:28:40.338Z,33.16
2023-02-27T13:29:40.292Z,34.02
2023-02-27T13:30:40.241Z,33.83
2023-02-27T13:31:40.319Z,33.86
2023-02-27T13:32:44.084Z,33.83
2023-02-27T13:33:40.115Z,33.85
2023-02-27T13:34:40.083Z,33.97
2023-02-27T13:35:40.088Z,33.88
2023-02-27T13:36:40.021Z,32.57
2023-02-27T13:37:39.979Z,32.02
2023-02-27T13:38:39.937Z,33.58
2023-02-27T13:39:39.902Z,32.75
2023-02-27T13:40:39.869Z,32.43
2023-02-27T13:41:39.847Z,32.74
2023-02-27T13:42:39.784Z,31.87
2023-02-27T13:43:51.441Z,30.69
2023-02-27T13:45:39.704Z,30.72
2023-02-27T13:46:39.752Z,30.87
2023-02-27T13:47:39.618Z,31.31
2023-02-27T13:48:39.579Z,31.72
2023-02-27T13:49:39.518Z,30.61
2023-02-27T13:50:39.488Z,32.12
2023-02-27T13:51:39.439Z,32.13
2023-02-27T13:52:39.409Z,31.78
2023-02-27T13:53:39.371Z,31.68
2023-02-27T13:54:39.348Z,31.08
2023-02-27T13:55:39.294Z,30.68
2023-02-27T13:56:39.251Z,31.73
2023-02-27T13:57:39.215Z,33.20
2023-02-27T13:58:39.178Z,31.42
2023-02-27T13:59:39.144Z,31.79
2023-02-27T14:00:39.091Z,32.64
2023-02-27T14:01:39.150Z,31.98
2023-02-27T14:02:46.560Z,31.69
2023-02-27T14:03:39.982Z,31.70
2023-02-27T14:04:38.947Z,31.23
2023-02-27T14:05:38.905Z,31.99
2023-02-27T14:06:38.881Z,31.60
2023-02-27T14:07:38.848Z,30.89
2023-02-27T14:08:38.804Z,29.90
2023-02-27T14:09:38.767Z,31.38
2023-02-27T14:10:38.721Z,30.60
2023-02-27T14:11:38.689Z,30.30
2023-02-27T14:12:45.348Z,31.64
2023-02-27T14:13:39.646Z,31.69
2023-02-27T14:14:38.609Z,31.65
2023-02-27T14:15:38.568Z,31.85
2023-02-27T14:16:38.556Z,31.70
2023-02-27T14:17:38.503Z,31.92
2023-02-27T14:18:38.478Z,32.14
2023-02-27T14:19:38.441Z,32.30
2023-02-27T14:20:38.412Z,32.48
2023-02-27T14:21:38.398Z,32.11
2023-02-27T14:22:38.359Z,31.66
2023-02-27T14:23:38.327Z,31.46
2023-02-27T14:24:38.307Z,30.58
2023-02-27T14:25:38.242Z,30.46
2023-02-27T14:26:38.238Z,31.53
2023-02-27T14:27:38.173Z,30.88
2023-02-27T14:28:38.144Z,31.05
2023-02-27T14:29:38.112Z,30.21
2023-02-27T14:30:38.077Z,31.08
2023-02-27T14:31:38.127Z,30.95
2023-02-27T14:32:38.021Z,30.52
2023-02-27T14:33:40.754Z,30.36
2023-02-27T14:34:37.941Z,30.97
2023-02-27T14:35:37.980Z,31.50
2023-02-27T14:36:37.888Z,31.87
2023-02-27T14:37:37.860Z,30.74
2023-02-27T14:38:37.821Z,30.66
2023-02-27T14:39:37.780Z,30.39
2023-02-27T14:40:37.760Z,30.40
2023-02-27T14:41:37.721Z,31.04
2023-02-27T14:42:37.737Z,30.68
2023-02-27T14:43:37.648Z,30.16
2023-02-27T14:44:37.625Z,30.18
2023-02-27T14:45:37.613Z,30.11
2023-02-27T14:46:37.689Z,29.44
2023-02-27T14:47:37.546Z,30.19
2023-02-27T14:48:37.517Z,30.30
2023-02-27T14:49:37.483Z,30.46
2023-02-27T14:50:37.462Z,30.10
2023-02-27T14:51:37.428Z,28.78
2023-02-27T14:52:37.386Z,29.44
2023-02-27T14:53:37.384Z,30.08
2023-02-27T14:54:37.320Z,29.45
2023-02-27T14:55:37.296Z,30.32
2023-02-27T14:56:37.261Z,29.81
2023-02-27T14:57:37.236Z,28.99
2023-02-27T14:58:37.193Z,29.35
2023-02-27T14:59:37.161Z,28.93
2023-02-27T15:00:37.131Z,30.00
2023-02-27T15:01:37.180Z,29.48
2023-02-27T15:02:37.063Z,29.32
2023-02-27T15:03:37.057Z,27.54
2023-02-27T15:04:37.023Z,28.27
2023-02-27T15:05:36.954Z,28.41
2023-02-27T15:06:36.903Z,27.38
2023-02-27T15:07:36.878Z,28.09
2023-02-27T15:08:36.852Z,28.15
2023-02-27T15:09:36.804Z,28.20
2023-02-27T15:10:36.773Z,28.30
2023-02-27T15:11:36.740Z,28.15
2023-02-27T15:12:36.740Z,29.07
2023-02-27T15:13:36.687Z,27.25
2023-02-27T15:14:36.782Z,26.31
2023-02-27T15:15:36.642Z,27.67
2023-02-27T15:16:36.836Z,27.50
2023-02-27T15:17:36.551Z,27.97
2023-02-27T15:18:36.511Z,27.43
2023-02-27T15:19:36.482Z,27.31
2023-02-27T15:20:36.446Z,27.81
2023-02-27T15:21:36.414Z,27.21
2023-02-27T15:22:39.371Z,28.31
2023-02-27T15:23:36.356Z,29.07
2023-02-27T15:24:49.251Z,28.92
2023-02-27T15:25:37.312Z,28.96
2023-02-27T15:26:36.255Z,29.07
2023-02-27T15:27:36.223Z,29.25
2023-02-27T15:28:36.203Z,28.57
2023-02-27T15:29:36.229Z,27.94
2023-02-27T15:30:36.152Z,28.73
2023-02-27T15:31:36.168Z,28.29
2023-02-27T15:32:36.090Z,27.49
2023-02-27T15:33:36.050Z,27.43
2023-02-27T15:34:36.033Z,27.17
2023-02-27T15:35:36.025Z,27.86
2023-02-27T15:36:35.947Z,27.34
2023-02-27T15:37:35.944Z,28.57
2023-02-27T15:38:35.871Z,27.94
2023-02-27T15:39:35.840Z,27.57
2023-02-27T15:40:35.795Z,28.24
2023-02-27T15:41:35.762Z,27.94
2023-02-27T15:42:35.731Z,28.91
2023-02-27T16:30:34.256Z,25.01
2023-02-27T16:31:34.301Z,25.30
2023-02-27T19:22:30.080Z,16.25
2023-02-27T21:52:27.097Z,11.07
2023-02-27T22:22:26.671Z,10.42
2023-02-27T22:23:26.650Z,10.34
2023-02-27T22:24:26.626Z,10.36
2023-02-27T22:25:26.610Z,10.18
2023-02-27T22:26:26.606Z,10.07
2023-02-27T22:27:26.561Z,10.16
2023-02-27T22:28:26.541Z,10.08
2023-02-27T22:29:26.538Z,10.33
2023-02-27T22:30:26.510Z,10.15
2023-02-27T22:31:26.677Z,9.97
2023-02-27T22:32:26.515Z,9.97
2023-02-27T22:33:26.459Z,10.00
2023-02-27T22:34:26.436Z,10.15
2023-02-27T22:35:26.450Z,10.20
2023-02-27T22:36:26.408Z,10.40
2023-02-27T22:37:26.390Z,9.97
2023-02-27T22:38:26.432Z,10.12
2023-02-27T22:39:26.364Z,9.90
2023-02-27T22:40:26.353Z,9.96
2023-02-27T22:41:26.557Z,10.02
2023-02-27T22:42:26.312Z,9.53
2023-02-27T22:43:26.290Z,9.98
2023-02-27T22:44:26.272Z,10.17
2023-02-27T22:45:26.270Z,9.87
2023-02-27T22:46:26.257Z,9.59
2023-02-27T22:47:26.211Z,9.95
2023-02-27T22:48:26.197Z,10.10
2023-02-27T22:49:26.174Z,9.86
2023-02-27T22:50:26.163Z,10.01
2023-02-27T22:51:26.384Z,9.92
2023-02-27T22:52:26.128Z,9.88
2023-02-27T22:53:26.108Z,9.67
2023-02-27T22:54:26.091Z,9.45
2023-02-27T22:55:26.070Z,9.57
2023-02-27T22:56:26.079Z,9.69
2023-02-27T22:57:26.026Z,9.59
2023-02-27T22:58:26.009Z,9.58
2023-02-27T22:59:25.987Z,9.43
2023-02-27T23:00:25.970Z,9.54
2023-02-27T23:01:26.092Z,9.58
2023-02-27T23:02:25.920Z,9.48
2023-02-27T23:03:25.910Z,9.56
2023-02-27T23:04:25.879Z,9.78
2023-02-27T23:05:25.857Z,9.66
2023-02-27T23:06:25.848Z,9.51
2023-02-27T23:07:25.828Z,9.24
2023-02-27T23:08:25.815Z,9.39
2023-02-27T23:09:25.787Z,9.33
2023-02-27T23:10:25.782Z,9.51
2023-02-27T23:11:25.781Z,9.44
2023-02-27T23:12:27.427Z,9.29
2023-02-27T23:13:25.741Z,9.46
2023-02-27T23:14:25.719Z,9.48
